Vigan, Philippines

1:58 PM PHT on August 30, 2015 (GMT +0800)
Laoag International | | Change Station
CLOSE
Current Station
Airport
Location: Laoag,
Elevation: 16 ft
Nearby Weather Stations

Elev 16 ft 18.18 °N, 120.53 °E | Updated 58 minutes ago

Mostly Cloudy
Mostly Cloudy
88 °F
Feels Like 98 °F
N
14
Wind Variable Wind from WSW

Today
High -- | Low -- °F
--% Chance of Precip.
Yesterday
High -- | Low -- °F
Precip. -- in
5:43 AM 6:14 PM
Full, 100% visible
Pressure 29.80 in
Visibility 6.2 miles
Clouds Few 1900 ft
Mostly Cloudy 10000 ft
Heat Index 98 °F
Dew Point 75 °F
Humidity 66%
Rainfall 0.00 in
Snow Depth Not available.
UV 9 out of 12
Pollen Not available.
Air Quality Not available.
Flu Activity Not available.
METAR RPLI 300500Z 25012KT 9999 FEW019 BKN100 31/24 Q1009 NOSIG RMK A2980
Pressure 29.80 in
Visibility 6.2 miles
Clouds Few 1900 ft
Mostly Cloudy 10000 ft
Heat Index 98 °F
Dew Point 75 °F
Humidity 66%
Rainfall 0.00 in
Snow Depth Not available.
UV 9 out of 12
Pollen Not available.
Air Quality Not available.
Flu Activity Not available.
METAR RPLI 300500Z 25012KT 9999 FEW019 BKN100 31/24 Q1009 NOSIG RMK A2980

10-Day Weather Forecast

×

Almanac

Astronomy

Aug. 30, 2015 Rise Set
Actual Time
Civil Twilight
Nautical Twilight
Astronomical Twilight
Moon
Length of Visible Light
Length of Day
Tomorrow will be .
, % of the Moon is Illuminated

Today's Extremes

Country Highs Country Lows

Community

WunderPhotos

Upload Photos

1,850,896 photos uploaded!

WunderBlogs® & News

Nearby

Air Quality

  Air Quality AQ Index Pollutant
Not available.

Snow Depth

Station Depth Elevation

Earthquake Activity

City Distance Mag. Time & Date
Minimum magnitude displayed is 2.5.

Coastal Water Temperatures

Place Temperature

Stations

Nearby Weather Stations

Station Location Temp. Windchill Dew Point Humidity Wind Precip. Elev Updated Type